Time;durP1;ratioP1;P1;durP2;ratioP2;P2;SDS_P1;SDS_P2;PMS_P1;PMS_P2;Temp;Humidity;BMP_temperature;BMP_pressure;BME280_temperature;BME280_humidity;BME280_pressure;Samples;Min_cycle;Max_cycle;Signal;HPM_P1;HPM_P2
2022/01/21 00:01:36;;;;;;;178.27;83.18;;;128.70;2252.80;;;;;;5053044;28;20028;-59
2022/01/21 00:04:02;;;;;;;234.55;109.30;;;128.60;2252.80;;;;;;5052926;28;20391;-59
2022/01/21 00:06:30;;;;;;;401.45;187.77;;;128.30;2252.80;;;;;;5034809;28;20082;-59
2022/01/21 00:08:56;;;;;;;122.95;59.70;;;128.30;2252.80;;;;;;5052613;28;20382;-60
2022/01/21 00:11:23;;;;;;;135.88;60.17;;;128.10;2252.80;;;;;;5053108;28;20025;-58
2022/01/21 00:13:50;;;;;;;216.65;89.00;;;103.30;2227.20;;;;;;5052495;28;20025;-61
2022/01/21 00:16:18;;;;;;;134.27;59.97;;;103.10;2227.20;;;;;;5052885;28;20117;-59
2022/01/21 00:18:56;;;;;;;56.95;26.55;;;103.10;2227.20;;;;;;5052714;28;20033;-59
2022/01/21 00:32:21;;;;;;;15.90;10.63;;;103.00;2227.20;;;;;;5052593;28;20071;-60
2022/01/21 00:34:47;;;;;;;33.28;15.20;;;103.10;2227.20;;;;;;5051772;28;20037;-61
2022/01/21 00:37:13;;;;;;;16.17;8.23;;;103.10;2227.20;;;;;;5052341;28;20025;-58
2022/01/21 00:39:39;;;;;;;97.28;41.35;;;103.10;2227.20;;;;;;5052057;28;20108;-61
2022/01/21 00:42:25;;;;;;;33.60;16.45;;;103.20;2227.20;;;;;;5052273;28;20083;-60
2022/01/21 00:44:52;;;;;;;208.70;87.68;;;103.10;2227.20;;;;;;5052253;28;20033;-61
2022/01/21 00:47:18;;;;;;;248.15;116.82;;;103.00;2227.20;;;;;;5051992;28;20079;-59
2022/01/21 00:49:45;;;;;;;22.35;10.88;;;103.00;2227.20;;;;;;5052108;28;20107;-59
2022/01/21 00:52:10;;;;;;;118.88;51.35;;;102.90;2227.20;;;;;;5051741;28;20094;-58
2022/01/21 00:54:37;;;;;;;118.22;53.70;;;102.90;2227.20;;;;;;5051852;28;20021;-60
2022/01/21 00:57:03;;;;;;;12.68;7.28;;;102.90;2227.20;;;;;;5052335;28;20021;-58
2022/01/21 00:59:29;;;;;;;19.55;9.90;;;102.70;2227.20;;;;;;5051942;28;20039;-59
2022/01/21 01:01:55;;;;;;;56.92;27.05;;;102.80;2227.20;;;;;;5052131;28;20446;-61
2022/01/21 01:04:21;;;;;;;15.70;8.25;;;102.80;2227.20;;;;;;5051804;28;20107;-58
2022/01/21 01:06:47;;;;;;;93.82;47.08;;;102.60;2227.20;;;;;;5051699;28;20083;-59
2022/01/21 01:09:13;;;;;;;24.23;11.32;;;102.70;2227.20;;;;;;5051645;28;20025;-58
2022/01/21 01:20:03;;;;;;;52.00;26.58;;;102.80;2227.20;;;;;;5051578;28;20540;-59
2022/01/21 01:22:57;;;;;;;20.85;9.95;;;102.80;2227.20;;;;;;5051450;28;20041;-58
2022/01/21 01:28:00;;;;;;;6.55;4.00;;;102.50;2227.20;;;;;;5051320;28;20086;-60
2022/01/21 01:30:28;;;;;;;50.38;21.98;;;102.50;2227.20;;;;;;5051791;28;20032;-59
2022/01/21 01:33:00;;;;;;;11.48;6.10;;;102.50;2227.20;;;;;;5051568;28;20025;-58
2022/01/21 01:35:29;;;;;;;9.88;6.57;;;102.40;2227.20;;;;;;5051599;28;20079;-60
2022/01/21 01:40:50;;;;;;;9.25;6.05;;;102.80;2227.20;;;;;;5051247;28;20056;-60
2022/01/21 01:51:13;;;;;;;10.38;6.43;;;102.50;2227.20;;;;;;5051120;28;20108;-60
2022/01/21 01:53:47;;;;;;;10.73;5.85;;;102.50;2227.20;;;;;;5050940;28;20446;-62
2022/01/21 01:56:17;;;;;;;112.85;51.08;;;102.70;2227.20;;;;;;5051008;28;20079;-61
2022/01/21 01:58:43;;;;;;;73.22;31.60;;;102.60;2227.20;;;;;;5050950;28;20052;-60
2022/01/21 02:01:09;;;;;;;42.33;19.27;;;102.50;2227.20;;;;;;5050594;28;20025;-59
2022/01/21 02:03:36;;;;;;;87.55;38.63;;;102.40;2227.20;;;;;;5050828;28;20048;-62
2022/01/21 02:06:02;;;;;;;69.85;30.85;;;102.70;2227.20;;;;;;5050719;28;20395;-60
2022/01/21 02:08:29;;;;;;;82.28;35.42;;;77.70;2227.20;;;;;;5050434;28;20128;-59
2022/01/21 02:10:56;;;;;;;132.50;56.58;;;77.50;2227.20;;;;;;5050763;28;20033;-59
2022/01/21 02:13:29;;;;;;;78.03;35.22;;;77.50;2227.20;;;;;;5050712;28;20029;-59
2022/01/21 02:16:01;;;;;;;81.35;31.70;;;77.50;2227.20;;;;;;5050632;28;20021;-58
2022/01/21 02:21:36;;;;;;;49.85;24.10;;;77.50;2227.20;;;;;;5050344;28;20506;-58
2022/01/21 02:24:11;;;;;;;33.45;14.25;;;77.60;2227.20;;;;;;5050324;28;20033;-61
2022/01/21 02:26:37;;;;;;;37.55;19.23;;;77.60;2227.20;;;;;;5050079;28;20037;-61
2022/01/21 02:29:05;;;;;;;10.52;6.18;;;77.50;2227.20;;;;;;5050568;28;20044;-62
2022/01/21 02:31:31;;;;;;;119.38;53.25;;;77.50;2227.20;;;;;;5050163;28;20044;-62
2022/01/21 02:33:57;;;;;;;105.68;51.70;;;77.50;2227.20;;;;;;5050243;28;20060;-61
2022/01/21 02:36:24;;;;;;;20.38;10.82;;;77.50;2227.20;;;;;;5050382;28;20025;-62
2022/01/21 02:38:49;;;;;;;18.70;9.25;;;77.60;2227.20;;;;;;5049898;28;20029;-63
2022/01/21 02:41:16;;;;;;;27.50;12.45;;;77.60;2227.20;;;;;;5050290;28;20086;-62
2022/01/21 02:43:41;;;;;;;20.05;9.98;;;102.50;2227.20;;;;;;5050101;28;20461;-63
2022/01/21 02:46:09;;;;;;;15.68;9.13;;;102.50;2227.20;;;;;;5049744;28;20120;-62
2022/01/21 02:48:38;;;;;;;14.95;9.48;;;102.40;2227.20;;;;;;5032754;28;20108;-63
2022/01/21 02:51:06;;;;;;;12.30;8.73;;;77.70;2227.20;;;;;;5049988;28;20111;-62
2022/01/21 02:56:05;;;;;;;;;;;102.40;2227.20;;;;;;5050594;28;20071;-64
2022/01/21 02:58:32;;;;;;;10.38;5.97;;;102.40;2227.20;;;;;;5049895;28;20011;-63
2022/01/21 03:00:58;;;;;;;11.88;7.47;;;102.40;2227.20;;;;;;5049887;28;20021;-63
2022/01/21 03:03:25;;;;;;;13.32;7.25;;;77.70;2227.20;;;;;;5050133;28;20078;-62
2022/01/21 03:05:50;;;;;;;15.35;8.38;;;102.40;2227.20;;;;;;5049851;28;20115;-63
2022/01/21 03:08:16;;;;;;;13.77;7.97;;;102.50;2227.20;;;;;;5049659;28;20148;-61
2022/01/21 03:10:42;;;;;;;104.57;47.95;;;102.50;2227.20;;;;;;5049842;28;20085;-62
2022/01/21 03:13:08;;;;;;;244.15;104.43;;;102.40;2227.20;;;;;;5049580;28;20029;-58
2022/01/21 03:15:34;;;;;;;32.55;16.85;;;77.70;2227.20;;;;;;5050112;28;20025;-58
2022/01/21 03:17:59;;;;;;;327.40;156.10;;;102.50;2227.20;;;;;;5049858;28;20067;-60
2022/01/21 03:20:27;;;;;;;225.52;98.57;;;77.70;2227.20;;;;;;5049629;28;20094;-61
2022/01/21 03:22:52;;;;;;;235.85;105.18;;;77.70;2227.20;;;;;;5049900;28;20104;-62
2022/01/21 03:25:18;;;;;;;274.75;132.10;;;77.50;2227.20;;;;;;5049665;28;20104;-61
2022/01/21 03:27:44;;;;;;;67.75;31.85;;;77.60;2227.20;;;;;;5049612;28;20078;-58
2022/01/21 03:30:10;;;;;;;22.75;11.13;;;77.50;2227.20;;;;;;5049779;28;20021;-58
2022/01/21 03:32:38;;;;;;;24.52;14.20;;;77.50;2227.20;;;;;;5049493;28;20515;-59
2022/01/21 03:35:04;;;;;;;9.77;5.13;;;77.50;2227.20;;;;;;5049739;28;20104;-60
2022/01/21 03:37:30;;;;;;;7.05;3.53;;;77.70;2227.20;;;;;;5049573;28;20463;-59
2022/01/21 03:39:58;;;;;;;10.68;5.07;;;77.60;2227.20;;;;;;5049615;28;20053;-59
2022/01/21 03:42:23;;;;;;;21.48;11.18;;;77.40;2227.20;;;;;;5049547;28;20033;-60
2022/01/21 03:44:49;;;;;;;21.85;9.35;;;77.40;2227.20;;;;;;5049538;28;20048;-61
2022/01/21 03:47:15;;;;;;;32.72;17.63;;;77.40;2227.20;;;;;;5049372;28;20119;-61
2022/01/21 03:49:50;;;;;;;8.90;3.92;;;77.40;2227.20;;;;;;5049414;28;20037;-61
2022/01/21 03:52:16;;;;;;;9.88;5.05;;;77.40;2227.20;;;;;;5049172;28;20514;-62
2022/01/21 03:54:42;;;;;;;15.43;7.85;;;77.50;2227.20;;;;;;5031366;28;20041;-61
2022/01/21 03:57:07;;;;;;;6.85;2.85;;;77.40;2227.20;;;;;;5049208;28;20025;-62
2022/01/21 03:59:33;;;;;;;75.70;36.47;;;77.40;2227.20;;;;;;5049513;28;20024;-59
2022/01/21 04:02:00;;;;;;;53.80;26.27;;;77.40;2227.20;;;;;;5049274;28;20108;-59
2022/01/21 04:04:25;;;;;;;209.57;133.73;;;77.30;2227.20;;;;;;5049485;28;20112;-59
2022/01/21 04:06:51;;;;;;;69.50;34.25;;;77.40;2227.20;;;;;;5049364;28;20187;-60
2022/01/21 04:09:17;;;;;;;92.53;48.67;;;77.30;2227.20;;;;;;5049646;28;20479;-59
2022/01/21 04:11:43;;;;;;;30.33;18.20;;;77.20;2227.20;;;;;;5052965;28;20033;-59
2022/01/21 04:14:08;;;;;;;53.63;30.02;;;77.20;2227.20;;;;;;5052706;28;20383;-60
2022/01/21 04:16:34;;;;;;;27.80;15.95;;;77.20;2227.20;;;;;;5052871;28;20025;-63
2022/01/21 04:19:00;;;;;;;50.67;28.05;;;77.20;2227.20;;;;;;5052382;28;20033;-62
2022/01/21 04:21:27;;;;;;;22.48;12.98;;;77.20;2227.20;;;;;;5039107;28;20057;-61
2022/01/21 04:23:53;;;;;;;48.80;26.38;;;77.20;2227.20;;;;;;5032847;28;20025;-61
2022/01/21 04:26:18;;;;;;;16.25;12.13;;;77.20;2227.20;;;;;;5032446;28;20361;-61
2022/01/21 04:28:44;;;;;;;9.10;6.20;;;77.10;2227.20;;;;;;5032610;28;20029;-61
2022/01/21 04:31:10;;;;;;;17.42;9.27;;;77.00;2227.20;;;;;;5032621;28;20021;-61
2022/01/21 04:33:35;;;;;;;16.95;10.43;;;77.20;2227.20;;;;;;5032555;28;20129;-62
2022/01/21 04:36:01;;;;;;;12.63;10.43;;;77.30;2227.20;;;;;;5032565;28;20029;-58
2022/01/21 04:38:27;;;;;;;8.65;6.68;;;77.10;2227.20;;;;;;5032317;28;20025;-58
2022/01/21 04:41:18;;;;;;;7.45;5.00;;;77.10;2227.20;;;;;;5032449;28;20036;-58
2022/01/21 04:49:12;;;;;;;18.23;12.32;;;77.20;2227.20;;;;;;5032259;28;20080;-61
2022/01/21 04:51:47;;;;;;;18.52;12.10;;;77.20;2227.20;;;;;;5032048;28;20388;-60
2022/01/21 04:54:13;;;;;;;13.70;8.07;;;77.00;2227.20;;;;;;5032336;28;20040;-61
2022/01/21 04:56:39;;;;;;;29.05;17.65;;;76.90;2227.20;;;;;;5032013;28;20026;-58
2022/01/21 04:59:05;;;;;;;27.20;17.05;;;76.90;2227.20;;;;;;5032173;28;20071;-60
2022/01/21 05:01:31;;;;;;;35.75;22.05;;;76.90;2227.20;;;;;;5031891;28;20044;-62
2022/01/21 05:03:56;;;;;;;64.55;35.58;;;77.00;2227.20;;;;;;5032177;28;20022;-61
2022/01/21 05:06:22;;;;;;;53.85;32.70;;;77.00;2227.20;;;;;;5031948;28;20494;-61
2022/01/21 05:08:51;;;;;;;24.77;16.88;;;77.00;2227.20;;;;;;5031873;28;20108;-61
2022/01/21 05:11:17;;;;;;;43.05;27.00;;;77.00;2227.20;;;;;;5031702;28;20030;-62
2022/01/21 05:13:53;;;;;;;22.27;15.02;;;77.10;2227.20;;;;;;5031973;28;20032;-61
2022/01/21 05:18:57;;;;;;;20.25;14.80;;;77.00;2227.20;;;;;;5031950;28;20021;-62
2022/01/21 05:21:23;;;;;;;28.77;12.98;;;77.10;2227.20;;;;;;5030453;28;20041;-61
2022/01/21 05:23:49;;;;;;;18.85;12.32;;;77.10;2227.20;;;;;;5031368;28;20030;-60
2022/01/21 05:26:14;;;;;;;14.88;10.48;;;77.10;2227.20;;;;;;5031455;28;20041;-60
2022/01/21 05:28:40;;;;;;;26.98;15.52;;;77.20;2227.20;;;;;;5031337;28;20029;-60
2022/01/21 05:31:06;;;;;;;19.17;13.73;;;77.20;2227.20;;;;;;5031612;28;20684;-59
2022/01/21 05:33:32;;;;;;;27.63;16.30;;;77.30;2227.20;;;;;;5031157;28;20045;-61
2022/01/21 05:35:57;;;;;;;26.23;13.95;;;77.30;2227.20;;;;;;5031240;28;20025;-59
2022/01/21 05:38:23;;;;;;;24.33;15.20;;;77.30;2227.20;;;;;;5020704;28;20037;-59
2022/01/21 05:40:50;;;;;;;26.38;14.68;;;77.30;2227.20;;;;;;5027838;28;20044;-59
2022/01/21 05:43:16;;;;;;;32.33;16.38;;;77.30;2227.20;;;;;;5031231;28;20534;-59
2022/01/21 05:48:27;;;;;;;11.65;6.28;;;77.50;2227.20;;;;;;5031278;28;20449;-61
2022/01/21 05:50:53;;;;;;;13.88;6.53;;;77.50;2227.20;;;;;;5031202;28;20026;-59
2022/01/21 05:53:19;;;;;;;14.13;7.32;;;77.40;2227.20;;;;;;5031029;28;20521;-59
2022/01/21 05:55:45;;;;;;;36.53;21.88;;;77.20;2227.20;;;;;;5030872;28;20025;-60
2022/01/21 05:58:13;;;;;;;36.63;17.60;;;77.20;2227.20;;;;;;5030768;28;20091;-58
2022/01/21 06:00:42;;;;;;;36.00;24.17;;;77.20;2227.20;;;;;;5029072;28;20040;-61
2022/01/21 06:03:08;;;;;;;40.65;27.30;;;77.00;2227.20;;;;;;5027142;28;20022;-58
2022/01/21 06:05:34;;;;;;;21.10;12.43;;;77.00;2227.20;;;;;;5030947;28;20104;-61
2022/01/21 06:08:04;;;;;;;15.63;9.07;;;77.10;2227.20;;;;;;5030402;28;20037;-62
2022/01/21 06:10:30;;;;;;;13.15;7.60;;;77.20;2227.20;;;;;;5030248;28;20076;-62
2022/01/21 06:12:56;;;;;;;16.55;8.68;;;77.30;2227.20;;;;;;5030035;28;20032;-59
2022/01/21 06:15:23;;;;;;;15.90;8.00;;;77.20;2227.20;;;;;;5019019;28;20038;-61
2022/01/21 06:17:49;;;;;;;18.40;10.43;;;77.30;2227.20;;;;;;5010502;28;20477;-62
2022/01/21 06:20:14;;;;;;;16.50;11.05;;;77.20;2227.20;;;;;;5014549;28;20044;-62
2022/01/21 06:22:40;;;;;;;12.32;5.75;;;77.20;2227.20;;;;;;5030311;28;20033;-62
2022/01/21 06:25:06;;;;;;;59.28;35.72;;;77.20;2227.20;;;;;;5030068;28;20018;-58
2022/01/21 06:27:34;;;;;;;14.40;8.57;;;77.30;2227.20;;;;;;5030103;28;20383;-59
2022/01/21 06:30:00;;;;;;;15.77;8.95;;;77.30;2227.20;;;;;;5030057;28;20040;-58
2022/01/21 06:32:27;;;;;;;17.45;8.35;;;77.20;2227.20;;;;;;5030032;28;20033;-61
2022/01/21 06:34:53;;;;;;;16.58;12.07;;;77.10;2227.20;;;;;;5030474;28;20459;-58
2022/01/21 06:37:19;;;;;;;17.52;11.68;;;77.10;2227.20;;;;;;5030317;28;20039;-61
2022/01/21 06:39:44;;;;;;;24.67;14.18;;;76.90;2227.20;;;;;;5030281;28;20033;-59
2022/01/21 06:42:10;;;;;;;23.65;13.98;;;77.00;2227.20;;;;;;5030092;28;20464;-59
2022/01/21 06:44:36;;;;;;;37.15;18.40;;;77.10;2227.20;;;;;;5029997;28;20025;-59
2022/01/21 06:47:03;;;;;;;69.85;34.45;;;76.90;2227.20;;;;;;5029981;28;20029;-62
2022/01/21 06:49:29;;;;;;;94.60;44.22;;;77.00;2227.20;;;;;;5029715;28;20472;-61
2022/01/21 06:51:54;;;;;;;49.10;21.88;;;77.00;2227.20;;;;;;5030236;28;20033;-58
2022/01/21 06:54:21;;;;;;;261.77;137.98;;;76.90;2227.20;;;;;;5029727;28;20029;-62
2022/01/21 06:56:47;;;;;;;103.90;73.88;;;76.90;2227.20;;;;;;5029839;28;20091;-61
2022/01/21 06:59:12;;;;;;;51.10;25.42;;;76.90;2227.20;;;;;;5029890;28;20034;-59
2022/01/21 07:01:38;;;;;;;37.33;26.73;;;76.90;2227.20;;;;;;5029778;28;20026;-61
2022/01/21 07:04:04;;;;;;;42.90;26.05;;;77.00;2227.20;;;;;;5029873;28;20429;-61
2022/01/21 07:06:30;;;;;;;53.72;33.60;;;76.90;2227.20;;;;;;5029732;28;20034;-61
2022/01/21 07:08:55;;;;;;;82.40;51.38;;;77.00;2227.20;;;;;;5030048;28;20980;-59
2022/01/21 07:11:21;;;;;;;141.27;78.97;;;77.00;2227.20;;;;;;5029835;28;20104;-59
2022/01/21 07:13:47;;;;;;;66.63;36.95;;;77.00;2227.20;;;;;;5029679;28;20065;-61
2022/01/21 07:16:13;;;;;;;103.80;73.28;;;76.90;2227.20;;;;;;5029955;28;20025;-60
2022/01/21 07:18:38;;;;;;;40.03;30.10;;;77.10;2227.20;;;;;;5029584;28;20025;-61
2022/01/21 07:21:04;;;;;;;30.25;20.15;;;77.10;2227.20;;;;;;5029501;28;20431;-61
2022/01/21 07:23:30;;;;;;;48.28;26.10;;;77.20;2227.20;;;;;;5028655;28;20036;-61
2022/01/21 07:25:57;;;;;;;40.67;22.90;;;77.10;2227.20;;;;;;5029629;28;20025;-60
2022/01/21 07:28:23;;;;;;;22.30;13.68;;;77.20;2227.20;;;;;;5029772;28;20125;-61
2022/01/21 07:30:49;;;;;;;37.78;21.17;;;77.20;2227.20;;;;;;5028668;28;20030;-61
2022/01/21 07:33:14;;;;;;;23.63;13.60;;;77.40;2227.20;;;;;;5029278;28;20025;-62
2022/01/21 07:35:41;;;;;;;20.80;12.98;;;77.50;2227.20;;;;;;5028886;28;20028;-60
2022/01/21 07:38:07;;;;;;;19.08;11.80;;;77.30;2227.20;;;;;;5028881;28;20352;-63
2022/01/21 07:40:33;;;;;;;18.67;11.10;;;77.40;2227.20;;;;;;5029125;28;20534;-61
2022/01/21 07:42:59;;;;;;;21.17;11.23;;;77.30;2227.20;;;;;;5029011;28;20025;-60
2022/01/21 07:45:24;;;;;;;17.10;11.98;;;77.30;2227.20;;;;;;5032039;28;20387;-60
2022/01/21 07:47:50;;;;;;;28.35;15.52;;;77.40;2227.20;;;;;;5032667;28;20037;-61
2022/01/21 07:50:16;;;;;;;23.85;13.77;;;77.40;2227.20;;;;;;5032510;28;20021;-58
2022/01/21 07:52:42;;;;;;;21.85;12.68;;;77.50;2227.20;;;;;;5033371;28;20029;-58
2022/01/21 07:55:08;;;;;;;24.15;12.95;;;77.70;2227.20;;;;;;5032784;28;20021;-61
2022/01/21 07:57:34;;;;;;;22.48;13.32;;;77.70;2227.20;;;;;;5032848;28;20029;-60
2022/01/21 08:00:00;;;;;;;35.60;21.80;;;77.70;2227.20;;;;;;5032809;28;20026;-62
2022/01/21 08:02:27;;;;;;;39.95;27.15;;;102.60;2227.20;;;;;;5032784;28;20033;-62
2022/01/21 08:04:55;;;;;;;34.13;21.67;;;102.70;2227.20;;;;;;5032859;28;20030;-61
2022/01/21 08:07:21;;;;;;;45.30;26.95;;;102.90;2227.20;;;;;;5032960;28;20028;-60
2022/01/21 08:09:49;;;;;;;32.22;16.63;;;102.90;2227.20;;;;;;5014423;28;20389;-59
2022/01/21 08:12:17;;;;;;;25.17;14.27;;;102.90;2227.20;;;;;;5032694;28;20025;-58
2022/01/21 08:14:43;;;;;;;13.65;7.65;;;102.80;2227.20;;;;;;5032581;28;20017;-59
2022/01/21 08:17:09;;;;;;;19.85;11.48;;;102.80;2227.20;;;;;;5032565;28;20030;-61
2022/01/21 08:19:34;;;;;;;26.90;18.60;;;102.80;2227.20;;;;;;5032616;28;20116;-60
2022/01/21 08:22:00;;;;;;;46.90;29.10;;;102.80;2227.20;;;;;;5032365;28;20140;-60
2022/01/21 08:24:26;;;;;;;31.45;17.05;;;102.80;2227.20;;;;;;5032840;28;20025;-62
2022/01/21 08:26:52;;;;;;;60.30;38.78;;;102.80;2227.20;;;;;;5014529;28;20471;-60
2022/01/21 08:29:18;;;;;;;63.15;35.08;;;102.80;2227.20;;;;;;5032560;28;20041;-60
2022/01/21 08:31:45;;;;;;;30.25;19.38;;;103.00;2227.20;;;;;;5032851;28;20472;-63
2022/01/21 08:34:12;;;;;;;30.58;18.60;;;103.00;2227.20;;;;;;5032578;28;20037;-58
2022/01/21 08:36:38;;;;;;;28.13;13.75;;;103.10;2227.20;;;;;;5014726;28;20099;-58
2022/01/21 08:39:05;;;;;;;27.90;16.67;;;102.90;2227.20;;;;;;5032580;28;20128;-58
2022/01/21 08:41:31;;;;;;;23.00;13.68;;;102.90;2227.20;;;;;;5032056;28;20029;-58
2022/01/21 08:43:56;;;;;;;8.30;4.85;;;102.60;2227.20;;;;;;5032329;28;20087;-59
2022/01/21 08:46:23;;;;;;;13.32;8.05;;;77.70;2227.20;;;;;;5032138;28;20395;-57
2022/01/21 08:48:49;;;;;;;11.35;5.90;;;77.70;2227.20;;;;;;5031983;28;20030;-58
2022/01/21 08:51:22;;;;;;;8.98;4.22;;;77.70;2227.20;;;;;;5031904;28;20029;-58
2022/01/21 08:53:48;;;;;;;;;;;102.40;2227.20;;;;;;5032444;28;20040;-59
2022/01/21 08:56:16;;;;;;;17.42;11.40;;;102.40;2227.20;;;;;;5031728;28;19928;-59
2022/01/21 08:58:44;;;;;;;15.88;11.80;;;102.60;2227.20;;;;;;5031900;28;20368;-58
2022/01/21 09:01:13;;;;;;;20.42;12.30;;;102.70;2227.20;;;;;;5031903;28;20030;-58
2022/01/21 09:03:40;;;;;;;26.13;15.88;;;103.20;2227.20;;;;;;5031774;28;20037;-58
2022/01/21 09:06:07;;;;;;;18.90;11.55;;;103.10;2227.20;;;;;;5031991;28;20033;-57
2022/01/21 09:08:33;;;;;;;15.48;8.40;;;103.10;2227.20;;;;;;5032143;28;20034;-57
2022/01/21 09:11:02;;;;;;;99.70;56.85;;;103.20;2227.20;;;;;;5031603;28;20026;-58
2022/01/21 09:13:30;;;;;;;17.70;11.00;;;103.00;2227.20;;;;;;5031674;28;20079;-58
2022/01/21 09:16:00;;;;;;;17.25;12.20;;;128.00;2252.80;;;;;;5032033;28;20356;-58
2022/01/21 09:18:33;;;;;;;7.88;4.68;;;128.50;2252.80;;;;;;5031780;28;20079;-58
2022/01/21 09:21:00;;;;;;;9.88;4.68;;;128.40;2252.80;;;;;;5031205;28;20052;-59
2022/01/21 09:23:28;;;;;;;8.02;4.18;;;128.40;2252.80;;;;;;5031637;28;20336;-58
2022/01/21 09:25:53;;;;;;;8.88;4.82;;;128.20;2252.80;;;;;;5031522;28;20169;-58
2022/01/21 09:28:19;;;;;;;8.75;3.83;;;103.30;2227.20;;;;;;5031380;28;20128;-58
2022/01/21 09:30:45;;;;;;;8.00;4.18;;;128.00;2252.80;;;;;;5031555;28;20097;-60
2022/01/21 09:33:10;;;;;;;9.52;5.85;;;103.10;2227.20;;;;;;5031268;28;20052;-57
2022/01/21 09:35:36;;;;;;;11.27;7.07;;;103.10;2227.20;;;;;;5030867;28;20032;-59
2022/01/21 09:38:02;;;;;;;8.80;5.70;;;103.30;2227.20;;;;;;5031289;28;20156;-58
2022/01/21 09:40:32;;;;;;;6.38;4.38;;;128.00;2252.80;;;;;;5031210;28;20032;-59
2022/01/21 09:42:59;;;;;;;25.05;12.68;;;128.20;2252.80;;;;;;5030788;28;20394;-58
2022/01/21 09:45:25;;;;;;;10.10;5.47;;;128.30;2252.80;;;;;;5031304;28;20026;-58
2022/01/21 09:47:54;;;;;;;11.15;7.22;;;128.20;2252.80;;;;;;5030809;28;20475;-59
2022/01/21 09:50:22;;;;;;;12.38;8.20;;;128.30;2252.80;;;;;;5030603;28;20040;-58
2022/01/21 09:52:50;;;;;;;8.10;4.35;;;128.40;2252.80;;;;;;5030811;28;20038;-58
2022/01/21 09:55:20;;;;;;;7.53;5.30;;;128.20;2252.80;;;;;;5031221;28;20511;-58
2022/01/21 09:57:51;;;;;;;11.63;8.75;;;128.20;2252.80;;;;;;5030320;28;20029;-58
2022/01/21 10:00:18;;;;;;;9.98;4.88;;;128.20;2252.80;;;;;;5030182;28;20021;-59
2022/01/21 10:02:45;;;;;;;9.98;4.97;;;128.40;2252.80;;;;;;5030542;28;20041;-58
2022/01/21 10:05:12;;;;;;;6.75;5.45;;;128.40;2252.80;;;;;;5030219;28;20480;-58
2022/01/21 10:07:44;;;;;;;8.07;6.70;;;128.30;2252.80;;;;;;5029734;28;20044;-59
2022/01/21 10:10:10;;;;;;;9.95;4.57;;;128.40;2252.80;;;;;;5030432;28;20026;-58
2022/01/21 10:12:39;;;;;;;10.95;6.43;;;128.40;2252.80;;;;;;5030678;28;20032;-58
2022/01/21 10:15:07;;;;;;;9.95;4.93;;;128.40;2252.80;;;;;;5030532;28;20025;-58
2022/01/21 10:17:33;;;;;;;10.18;5.90;;;128.20;2252.80;;;;;;5030783;28;20031;-58
2022/01/21 10:20:17;;;;;;;9.27;5.72;;;128.50;2252.80;;;;;;5030162;28;20032;-59
2022/01/21 10:23:03;;;;;;;9.23;6.53;;;128.70;2252.80;;;;;;5030450;28;20033;-59
2022/01/21 10:25:30;;;;;;;14.90;7.50;;;128.80;2252.80;;;;;;5030282;28;20116;-60
2022/01/21 10:28:10;;;;;;;8.25;4.90;;;128.90;2252.80;;;;;;5030565;28;20045;-59
2022/01/21 10:30:37;;;;;;;7.35;4.45;;;153.70;2252.80;;;;;;5030378;28;20022;-58
2022/01/21 10:33:17;;;;;;;6.07;3.88;;;128.90;2252.80;;;;;;5030471;28;20491;-59
2022/01/21 10:35:47;;;;;;;27.40;24.20;;;153.60;2252.80;;;;;;5030034;28;20025;-58
2022/01/21 10:38:28;;;;;;;17.48;15.68;;;153.80;2252.80;;;;;;5030298;28;20387;-59
2022/01/21 10:41:08;;;;;;;8.77;5.05;;;153.90;2176.00;;;;;;5030502;28;20025;-58
2022/01/21 10:43:36;;;;;;;5.18;3.70;;;154.20;2150.40;;;;;;5012465;28;20033;-56
2022/01/21 10:46:03;;;;;;;10.18;9.13;;;154.20;2150.40;;;;;;5027681;28;20046;-58
2022/01/21 10:48:31;;;;;;;4.18;2.75;;;153.80;2073.60;;;;;;5028362;28;20102;-57
2022/01/21 10:51:22;;;;;;;6.97;4.38;;;153.80;2124.80;;;;;;5030205;28;20459;-56
2022/01/21 10:53:48;;;;;;;8.07;2.85;;;153.60;2124.80;;;;;;5029793;28;20120;-57
2022/01/21 10:56:17;;;;;;;6.13;3.70;;;128.90;2124.80;;;;;;5029389;28;20108;-58
2022/01/21 10:58:46;;;;;;;5.28;2.92;;;153.80;2150.40;;;;;;5027120;28;20021;-57
2022/01/21 11:01:17;;;;;;;7.72;5.80;;;153.80;2150.40;;;;;;5029337;28;20037;-56
2022/01/21 11:04:09;;;;;;;6.18;3.30;;;153.90;2073.60;;;;;;5027082;28;20048;-58
2022/01/21 11:06:48;;;;;;;5.95;3.30;;;153.80;2073.60;;;;;;5029475;28;20030;-57
2022/01/21 11:09:18;;;;;;;10.02;5.60;;;153.80;2176.00;;;;;;5028554;28;20380;-54
2022/01/21 11:11:46;;;;;;;16.65;8.52;;;154.30;2099.20;;;;;;5027106;28;20067;-57
2022/01/21 11:14:15;;;;;;;24.95;11.95;;;179.20;2073.60;;;;;;5029552;28;20022;-54
2022/01/21 11:16:45;;;;;;;10.68;6.18;;;179.20;2073.60;;;;;;5029307;28;20045;-54
2022/01/21 11:19:13;;;;;;;7.43;4.30;;;154.10;2124.80;;;;;;5031225;28;20021;-54
2022/01/21 11:21:42;;;;;;;10.23;7.07;;;153.80;2201.60;;;;;;5037144;28;20049;-56
2022/01/21 11:24:10;;;;;;;18.52;10.98;;;153.60;2252.80;;;;;;5052679;28;20025;-58
2022/01/21 11:26:36;;;;;;;22.92;14.82;;;128.90;2252.80;;;;;;5047828;28;20418;-57
2022/01/21 11:29:04;;;;;;;28.63;17.13;;;128.80;2252.80;;;;;;5033950;28;20056;-58
2022/01/21 11:31:31;;;;;;;9.50;5.60;;;153.60;2252.80;;;;;;5033533;28;20021;-58
2022/01/21 11:33:57;;;;;;;16.67;8.50;;;128.80;2150.40;;;;;;5033971;28;20025;-58
2022/01/21 11:36:22;;;;;;;11.68;6.05;;;128.80;2048.00;;;;;;5033855;28;20024;-55
2022/01/21 11:38:53;;;;;;;7.10;4.75;;;128.50;2099.20;;;;;;5033482;28;20022;-58
2022/01/21 11:41:20;;;;;;;8.38;5.80;;;128.40;2124.80;;;;;;5032891;28;20025;-58
2022/01/21 11:43:52;;;;;;;9.43;6.43;;;128.10;2150.40;;;;;;5033386;28;20036;-55
2022/01/21 11:48:50;;;;;;;5.68;3.55;;;103.30;2124.80;;;;;;5031047;28;20391;-55
2022/01/21 11:51:28;;;;;;;5.72;3.22;;;128.10;2124.80;;;;;;5031754;28;20683;-58
2022/01/21 11:54:00;;;;;;;8.90;4.47;;;103.30;2150.40;;;;;;5031665;28;20030;-59
2022/01/21 11:56:37;;;;;;;14.63;3.97;;;103.30;2176.00;;;;;;5031298;28;20028;-59
2022/01/21 11:59:43;;;;;;;22.85;12.20;;;128.00;2227.20;;;;;;5031226;28;20030;-59
2022/01/21 12:02:15;;;;;;;35.13;18.48;;;128.40;2227.20;;;;;;5030261;28;20090;-59
2022/01/21 12:04:46;;;;;;;35.72;19.10;;;128.60;2227.20;;;;;;5030836;28;20467;-59
2022/01/21 12:07:44;;;;;;;15.23;8.02;;;128.60;2176.00;;;;;;5030719;28;20022;-54
2022/01/21 12:10:29;;;;;;;8.75;4.63;;;128.50;2124.80;;;;;;5030468;28;20057;-57
2022/01/21 12:12:58;;;;;;;17.15;9.07;;;128.30;2150.40;;;;;;5031059;28;20112;-55
2022/01/21 12:15:41;;;;;;;24.90;13.30;;;128.20;2099.20;;;;;;5031391;28;20018;-59
2022/01/21 12:20:47;;;;;;;10.43;4.30;;;102.90;2124.80;;;;;;5031165;28;20061;-54
2022/01/21 12:23:19;;;;;;;12.65;7.22;;;102.80;2124.80;;;;;;5031214;28;20038;-58
2022/01/21 12:26:15;;;;;;;7.75;5.03;;;102.80;2150.40;;;;;;5030842;28;20021;-58
2022/01/21 12:29:13;;;;;;;18.13;9.43;;;102.80;2150.40;;;;;;5030806;28;20043;-58
2022/01/21 12:32:06;;;;;;;24.98;11.25;;;102.80;2124.80;;;;;;5030189;28;20029;-58
2022/01/21 12:34:57;;;;;;;19.73;9.90;;;102.90;2124.80;;;;;;5031003;28;20090;-58
2022/01/21 12:37:26;;;;;;;26.83;15.50;;;103.10;2124.80;;;;;;5030996;28;20096;-58
2022/01/21 12:39:52;;;;;;;13.60;7.20;;;103.10;2124.80;;;;;;5030311;28;20026;-58
2022/01/21 12:42:27;;;;;;;24.38;9.40;;;103.30;2099.20;;;;;;5030540;28;20100;-57
2022/01/21 12:44:54;;;;;;;17.05;8.10;;;103.30;2048.00;;;;;;5030939;28;20030;-57
2022/01/21 12:47:30;;;;;;;12.57;5.10;;;103.20;2022.40;;;;;;5029224;28;20041;-58
2022/01/21 12:49:58;;;;;;;6.75;2.92;;;103.10;1996.80;;;;;;5030448;28;20060;-57
2022/01/21 12:52:45;;;;;;;8.00;4.32;;;102.80;2022.40;;;;;;5030801;28;20106;-54
2022/01/21 12:58:19;;;;;;;49.03;34.78;;;102.80;2073.60;;;;;;5030925;28;20168;-55
2022/01/21 13:00:45;;;;;;;22.02;9.50;;;102.80;2073.60;;;;;;5030211;28;20033;-54
2022/01/21 13:03:17;;;;;;;26.55;14.93;;;102.90;2099.20;;;;;;5030201;28;20032;-53
2022/01/21 13:05:57;;;;;;;19.35;11.27;;;103.00;2099.20;;;;;;5030277;28;20030;-53
2022/01/21 13:08:37;;;;;;;33.40;18.38;;;103.10;2048.00;;;;;;5030330;28;20072;-59
2022/01/21 13:11:16;;;;;;;15.65;6.25;;;103.20;2073.60;;;;;;5030391;28;20430;-54
2022/01/21 13:13:50;;;;;;;11.18;5.55;;;103.00;2073.60;;;;;;5028709;28;20030;-55